Time;durP1;ratioP1;P1;durP2;ratioP2;P2;SDS_P1;SDS_P2;PMS_P1;PMS_P2;Temp;Humidity;BMP_temperature;BMP_pressure;BME280_temperature;BME280_humidity;BME280_pressure;Samples;Min_cycle;Max_cycle;Signal;HPM_P1;HPM_P2
2021/01/28 00:00:53;;;;;;;15.53;13.20;;;4.30;99.90;;;;;;5128330;28;20502;-28
2021/01/28 00:03:20;;;;;;;14.50;12.73;;;4.30;99.90;;;;;;5127835;28;20759;-28
2021/01/28 00:05:47;;;;;;;15.53;13.93;;;4.40;99.90;;;;;;5109239;28;20534;-28
2021/01/28 00:08:15;;;;;;;16.30;13.20;;;4.40;99.90;;;;;;5128175;28;20452;-27
2021/01/28 00:10:42;;;;;;;16.17;14.13;;;4.40;99.90;;;;;;5128914;27;20678;-27
2021/01/28 00:13:11;;;;;;;17.00;14.00;;;4.40;99.90;;;;;;5131360;27;20438;-26
2021/01/28 00:15:38;;;;;;;14.97;13.33;;;4.40;99.90;;;;;;5131150;27;20462;-28
2021/01/28 00:18:08;;;;;;;17.53;14.23;;;4.40;99.90;;;;;;5132197;27;20518;-28
2021/01/28 00:20:37;;;;;;;17.63;15.10;;;4.50;99.90;;;;;;5131698;27;20775;-28
2021/01/28 00:23:06;;;;;;;15.40;13.70;;;4.50;99.90;;;;;;5130828;27;20525;-28
2021/01/28 00:25:37;;;;;;;18.17;12.70;;;4.50;99.90;;;;;;5130523;27;20856;-27
2021/01/28 00:28:07;;;;;;;19.07;14.37;;;4.60;99.90;;;;;;5132410;27;20863;-27
2021/01/28 00:30:36;;;;;;;17.30;13.97;;;4.60;99.90;;;;;;5130686;27;20727;-28
2021/01/28 00:33:04;;;;;;;17.13;15.37;;;4.50;99.90;;;;;;5131179;27;20438;-27
2021/01/28 00:35:35;;;;;;;17.70;15.57;;;4.50;99.90;;;;;;5131773;27;20925;-28
2021/01/28 00:38:03;;;;;;;19.60;14.17;;;4.50;99.90;;;;;;5131093;27;20903;-27
2021/01/28 00:40:31;;;;;;;17.77;14.70;;;4.50;99.90;;;;;;5131514;27;20444;-27
2021/01/28 00:42:58;;;;;;;18.30;13.80;;;4.50;99.90;;;;;;5132454;27;20519;-28
2021/01/28 00:45:27;;;;;;;18.20;14.23;;;4.50;99.90;;;;;;5112370;27;20453;-27
2021/01/28 00:47:54;;;;;;;17.50;14.40;;;4.40;99.90;;;;;;5131524;27;20529;-29
2021/01/28 00:50:24;;;;;;;16.13;13.83;;;4.40;99.90;;;;;;5130818;27;20789;-27
2021/01/28 00:52:51;;;;;;;20.53;14.50;;;4.40;99.90;;;;;;5132741;27;20871;-27
2021/01/28 00:55:20;;;;;;;16.60;14.33;;;4.40;99.90;;;;;;5111991;27;20496;-27
2021/01/28 00:57:51;;;;;;;17.07;14.23;;;4.40;99.90;;;;;;5113861;27;20438;-28
2021/01/28 01:00:23;;;;;;;14.90;13.40;;;4.40;99.90;;;;;;5112332;27;20487;-28
2021/01/28 01:02:49;;;;;;;18.47;16.10;;;4.40;99.90;;;;;;5113340;27;20931;-28
2021/01/28 01:05:18;;;;;;;18.53;14.40;;;4.50;99.90;;;;;;5130433;27;20502;-26
2021/01/28 01:07:47;;;;;;;16.27;14.30;;;4.50;99.90;;;;;;5131948;27;20442;-27
2021/01/28 01:10:24;;;;;;;16.53;14.43;;;4.50;99.90;;;;;;5130288;27;20766;-28
2021/01/28 01:12:51;;;;;;;16.00;13.07;;;4.50;99.90;;;;;;5129316;27;20461;-28
2021/01/28 01:15:18;;;;;;;16.83;14.43;;;4.50;99.90;;;;;;5130743;27;20469;-29
2021/01/28 01:17:45;;;;;;;14.47;12.30;;;4.60;99.90;;;;;;5112882;27;20438;-27
2021/01/28 01:20:15;;;;;;;17.97;14.57;;;4.60;99.90;;;;;;5110607;27;20537;-28
2021/01/28 01:22:42;;;;;;;16.93;13.53;;;4.60;99.90;;;;;;5112253;27;20438;-27
2021/01/28 01:25:12;;;;;;;16.10;12.40;;;4.70;99.90;;;;;;5111843;27;20491;-28
2021/01/28 01:27:40;;;;;;;15.80;14.20;;;4.70;99.90;;;;;;5129597;27;20525;-28
2021/01/28 01:30:27;;;;;;;15.80;13.90;;;4.70;99.90;;;;;;5131542;27;21073;-27
2021/01/28 01:32:55;;;;;;;15.57;13.83;;;4.70;99.90;;;;;;5131692;27;20735;-27
2021/01/28 01:35:44;;;;;;;14.77;12.87;;;4.70;99.90;;;;;;5128666;27;20558;-27
2021/01/28 01:38:12;;;;;;;15.63;13.87;;;4.60;99.90;;;;;;5130808;27;20817;-28
2021/01/28 01:40:45;;;;;;;19.03;14.20;;;4.60;99.90;;;;;;5111442;27;20449;-28
2021/01/28 01:43:14;;;;;;;15.60;13.80;;;4.60;99.90;;;;;;5112769;27;20733;-28
2021/01/28 01:45:44;;;;;;;16.67;13.13;;;4.50;99.90;;;;;;5110971;27;20999;-26
2021/01/28 01:48:17;;;;;;;18.40;15.13;;;4.40;99.90;;;;;;5111548;27;20541;-27
2021/01/28 01:50:55;;;;;;;15.83;13.27;;;4.40;99.90;;;;;;5111347;27;20552;-29
2021/01/28 01:53:27;;;;;;;16.63;13.73;;;4.50;99.90;;;;;;5112022;27;20532;-29
2021/01/28 01:55:58;;;;;;;18.67;15.17;;;4.40;99.90;;;;;;5110795;27;20477;-26
2021/01/28 01:58:39;;;;;;;18.03;14.10;;;4.40;99.90;;;;;;5111972;27;20531;-28
2021/01/28 02:01:27;;;;;;;15.57;13.93;;;4.30;99.90;;;;;;5128830;27;20457;-28
2021/01/28 02:04:15;;;;;;;16.23;13.50;;;4.20;99.90;;;;;;5129537;27;20542;-28
2021/01/28 02:07:20;;;;;;;18.93;14.77;;;4.20;99.90;;;;;;5084604;27;20851;-27
2021/01/28 02:10:26;;;;;;;16.93;15.13;;;4.20;99.90;;;;;;5065604;28;20440;-26
2021/01/28 02:13:16;;;;;;;14.40;12.20;;;4.20;99.90;;;;;;5057774;28;20577;-28
2021/01/28 02:15:52;;;;;;;16.53;13.90;;;4.20;99.90;;;;;;5109342;27;20492;-27
2021/01/28 02:18:19;;;;;;;15.47;13.43;;;4.30;99.90;;;;;;5111036;27;20445;-29
2021/01/28 02:21:15;;;;;;;13.73;11.33;;;4.30;99.90;;;;;;5127588;27;20763;-28
2021/01/28 02:24:14;;;;;;;14.53;13.03;;;4.30;99.90;;;;;;5108925;27;20468;-28
2021/01/28 02:26:45;;;;;;;15.60;13.00;;;4.30;99.90;;;;;;5110745;27;20461;-28
2021/01/28 02:29:34;;;;;;;14.27;12.43;;;4.30;99.90;;;;;;5118682;27;20458;-28
2021/01/28 02:32:03;;;;;;;14.70;12.67;;;4.40;99.90;;;;;;5112785;27;20430;-27
2021/01/28 02:34:32;;;;;;;19.83;13.77;;;4.40;99.90;;;;;;5110221;27;20779;-27
2021/01/28 02:37:22;;;;;;;15.77;13.87;;;4.40;99.90;;;;;;5110768;27;20469;-27
2021/01/28 02:40:09;;;;;;;16.93;13.20;;;4.30;99.90;;;;;;5111037;27;20973;-28
2021/01/28 02:43:03;;;;;;;14.20;12.70;;;4.30;99.90;;;;;;5124842;27;20495;-27
2021/01/28 02:46:10;;;;;;;18.10;13.57;;;4.30;99.90;;;;;;5130294;27;20450;-28
2021/01/28 02:48:50;;;;;;;15.40;12.60;;;4.40;99.90;;;;;;5111647;27;20482;-28
2021/01/28 02:51:26;;;;;;;14.20;12.30;;;4.40;99.90;;;;;;5129434;27;20456;-27
2021/01/28 02:53:56;;;;;;;14.83;13.13;;;4.50;99.90;;;;;;5111675;27;20422;-27
2021/01/28 02:56:25;;;;;;;15.80;12.97;;;4.50;99.90;;;;;;5129524;27;20728;-28
2021/01/28 02:58:56;;;;;;;15.20;13.37;;;4.50;99.90;;;;;;5108636;28;20821;-30
2021/01/28 03:01:26;;;;;;;15.63;12.97;;;4.50;99.90;;;;;;5108848;28;20497;-28
2021/01/28 03:03:55;;;;;;;15.27;13.33;;;4.60;99.90;;;;;;5108634;28;20465;-30
2021/01/28 03:06:22;;;;;;;19.23;13.27;;;4.60;99.90;;;;;;5107506;28;20532;-28
2021/01/28 03:08:55;;;;;;;16.03;12.80;;;4.60;99.90;;;;;;5109458;28;20435;-28
2021/01/28 03:11:40;;;;;;;18.00;14.47;;;4.60;99.90;;;;;;5109228;28;20781;-27
2021/01/28 03:14:13;;;;;;;15.70;13.47;;;4.60;99.90;;;;;;5108437;28;20482;-28
2021/01/28 03:16:44;;;;;;;15.80;12.50;;;4.70;99.90;;;;;;5109473;28;20431;-27
2021/01/28 03:19:21;;;;;;;15.33;12.50;;;4.60;99.90;;;;;;5108666;28;20446;-27
2021/01/28 03:21:51;;;;;;;17.60;12.90;;;4.60;99.90;;;;;;5110107;28;20946;-28
2021/01/28 03:24:25;;;;;;;14.23;12.73;;;4.70;99.90;;;;;;5110789;28;20558;-30
2021/01/28 03:27:06;;;;;;;14.23;12.30;;;4.70;99.90;;;;;;5108532;28;20764;-28
2021/01/28 03:29:34;;;;;;;15.17;12.90;;;4.70;99.90;;;;;;5108796;28;20454;-28
2021/01/28 03:32:02;;;;;;;19.13;13.97;;;4.70;99.90;;;;;;5108580;28;20496;-28
2021/01/28 03:34:30;;;;;;;15.40;12.60;;;4.70;99.90;;;;;;5107845;28;20492;-28
2021/01/28 03:36:58;;;;;;;17.33;13.00;;;4.70;99.90;;;;;;5107834;28;20760;-28
2021/01/28 03:39:31;;;;;;;14.60;12.53;;;4.70;99.90;;;;;;5107666;28;20438;-29
2021/01/28 03:41:58;;;;;;;15.93;12.97;;;4.60;99.90;;;;;;5107896;28;20435;-28
2021/01/28 03:44:24;;;;;;;15.40;13.80;;;4.60;99.90;;;;;;5109727;28;20443;-28
2021/01/28 03:46:54;;;;;;;15.30;12.10;;;4.60;99.90;;;;;;5110380;28;20789;-28
2021/01/28 03:49:31;;;;;;;12.10;10.80;;;4.60;99.90;;;;;;5112093;28;20650;-28
2021/01/28 03:52:15;;;;;;;13.70;12.30;;;4.50;99.90;;;;;;5111822;28;20460;-28
2021/01/28 03:55:01;;;;;;;12.87;11.57;;;4.50;99.90;;;;;;5111502;28;20823;-29
2021/01/28 03:57:35;;;;;;;16.40;12.30;;;4.50;99.90;;;;;;5110318;28;20803;-27
2021/01/28 04:00:10;;;;;;;12.97;11.67;;;4.50;99.90;;;;;;5114853;27;20529;-28
2021/01/28 04:02:49;;;;;;;12.63;11.33;;;4.50;99.90;;;;;;5115069;27;20447;-29
2021/01/28 04:05:35;;;;;;;15.07;11.70;;;4.50;99.90;;;;;;5132752;27;20477;-28
2021/01/28 04:08:20;;;;;;;12.33;10.97;;;4.50;99.90;;;;;;5130448;27;20437;-27
2021/01/28 04:11:07;;;;;;;13.67;12.20;;;4.50;99.90;;;;;;5130546;27;20795;-27
2021/01/28 04:13:34;;;;;;;13.00;11.60;;;4.50;99.90;;;;;;5113646;27;20449;-27
2021/01/28 04:16:02;;;;;;;14.37;12.20;;;4.50;99.90;;;;;;5131642;27;20526;-27
2021/01/28 04:18:30;;;;;;;14.60;12.27;;;4.50;99.90;;;;;;5114689;27;20529;-29
2021/01/28 04:21:19;;;;;;;14.67;12.07;;;4.50;99.90;;;;;;5131536;27;20545;-28
2021/01/28 04:23:47;;;;;;;12.83;11.40;;;4.40;99.90;;;;;;5114628;27;20907;-28
2021/01/28 04:26:26;;;;;;;15.20;11.27;;;4.40;99.90;;;;;;5114278;27;20736;-29
2021/01/28 04:28:58;;;;;;;15.77;12.00;;;4.30;99.90;;;;;;5112810;27;20434;-28
2021/01/28 04:31:44;;;;;;;15.87;11.00;;;4.30;99.90;;;;;;5130726;27;20495;-28
2021/01/28 04:34:21;;;;;;;13.70;11.00;;;4.30;99.90;;;;;;5112699;27;20560;-29
2021/01/28 04:36:53;;;;;;;14.00;11.37;;;4.20;99.90;;;;;;5113424;27;20733;-29
2021/01/28 04:39:58;;;;;;;13.80;11.73;;;4.20;99.90;;;;;;5111402;27;20506;-26
2021/01/28 04:42:39;;;;;;;16.00;12.20;;;4.10;99.90;;;;;;5114153;27;20510;-27
2021/01/28 04:45:07;;;;;;;13.70;11.37;;;4.10;99.90;;;;;;5111879;27;20753;-28
2021/01/28 04:47:37;;;;;;;14.60;11.80;;;4.10;99.90;;;;;;5111738;27;20942;-28
2021/01/28 04:50:27;;;;;;;12.83;10.83;;;4.10;99.90;;;;;;5129780;27;20449;-30
2021/01/28 04:53:12;;;;;;;18.53;12.07;;;4.10;99.90;;;;;;5111332;27;20555;-28
2021/01/28 04:55:54;;;;;;;15.13;11.10;;;4.20;99.90;;;;;;5108614;27;20507;-28
2021/01/28 04:58:22;;;;;;;19.80;12.43;;;4.20;99.90;;;;;;5109894;27;20576;-28
2021/01/28 05:01:07;;;;;;;17.03;12.40;;;4.20;99.90;;;;;;5110288;27;20619;-28
2021/01/28 05:04:15;;;;;;;12.70;10.17;;;4.20;99.90;;;;;;5044535;28;20665;-29
2021/01/28 05:07:09;;;;;;;16.10;12.60;;;4.20;99.90;;;;;;5109662;27;20438;-28
2021/01/28 05:10:14;;;;;;;12.80;10.47;;;4.20;99.90;;;;;;5125333;27;20517;-28
2021/01/28 05:13:00;;;;;;;11.73;10.30;;;4.20;99.90;;;;;;5128131;27;20838;-27
2021/01/28 05:15:50;;;;;;;13.63;11.90;;;4.30;99.90;;;;;;5119832;27;20844;-28
2021/01/28 05:18:43;;;;;;;13.10;11.70;;;4.30;99.90;;;;;;5106837;27;20486;-29
2021/01/28 05:21:33;;;;;;;14.30;10.73;;;4.30;99.90;;;;;;5122612;27;20454;-28
2021/01/28 05:24:31;;;;;;;16.13;13.00;;;4.40;99.90;;;;;;5123297;27;20515;-28
2021/01/28 05:27:12;;;;;;;14.17;11.83;;;4.40;99.90;;;;;;5105078;27;20526;-28
2021/01/28 05:29:40;;;;;;;18.97;13.17;;;4.40;99.90;;;;;;5124031;27;20436;-28
2021/01/28 05:32:31;;;;;;;17.70;14.50;;;4.40;99.90;;;;;;5101572;27;20548;-27
2021/01/28 05:35:37;;;;;;;19.53;15.10;;;4.40;99.90;;;;;;5087387;27;20637;-28
2021/01/28 05:38:35;;;;;;;15.70;12.80;;;4.40;99.90;;;;;;5104175;27;20521;-29
2021/01/28 05:41:25;;;;;;;20.27;13.47;;;4.40;99.90;;;;;;5101777;27;20449;-28
2021/01/28 05:43:52;;;;;;;13.80;11.53;;;4.40;99.90;;;;;;5103551;27;20701;-30
2021/01/28 05:46:27;;;;;;;14.07;12.53;;;4.50;99.90;;;;;;5085104;27;20486;-29
2021/01/28 05:49:20;;;;;;;16.87;13.30;;;4.50;99.90;;;;;;5117716;27;20438;-29
2021/01/28 05:52:20;;;;;;;28.60;16.30;;;4.50;99.90;;;;;;5099663;27;20435;-28
2021/01/28 05:55:04;;;;;;;21.50;14.70;;;4.60;99.90;;;;;;5099542;27;20757;-29
2021/01/28 05:57:46;;;;;;;22.17;14.30;;;4.60;99.90;;;;;;5101618;27;20944;-28
2021/01/28 06:00:22;;;;;;;20.73;15.60;;;4.60;99.90;;;;;;5099572;27;20442;-27
2021/01/28 06:03:29;;;;;;;13.70;11.27;;;4.60;99.90;;;;;;5098069;27;20760;-29
2021/01/28 06:06:36;;;;;;;14.87;11.57;;;4.60;99.90;;;;;;5097628;27;20779;-29
2021/01/28 06:09:48;;;;;;;14.63;11.80;;;4.60;99.90;;;;;;5111416;27;20446;-29
2021/01/28 06:12:26;;;;;;;18.27;11.63;;;4.50;99.90;;;;;;5079618;27;20485;-28
2021/01/28 06:15:18;;;;;;;15.37;12.00;;;4.50;99.90;;;;;;5095124;27;20930;-31
2021/01/28 06:18:34;;;;;;;16.77;11.30;;;4.60;99.90;;;;;;5113419;27;20454;-30
2021/01/28 06:22:06;;;;;;;17.20;12.37;;;4.60;99.90;;;;;;5108714;27;20745;-30
2021/01/28 06:25:02;;;;;;;13.10;10.90;;;4.60;99.90;;;;;;5108746;27;20731;-29
2021/01/28 06:28:04;;;;;;;15.03;12.13;;;4.60;99.90;;;;;;5093262;27;20439;-29
2021/01/28 06:30:38;;;;;;;20.83;12.30;;;4.70;99.90;;;;;;5089689;27;20794;-26
2021/01/28 06:33:34;;;;;;;17.87;11.33;;;4.70;99.90;;;;;;5087413;27;20452;-27
2021/01/28 06:37:04;;;;;;;18.00;12.70;;;4.70;99.90;;;;;;5075867;27;20895;-27
2021/01/28 06:39:47;;;;;;;17.93;11.83;;;4.70;99.90;;;;;;5087415;27;20442;-27
2021/01/28 06:42:32;;;;;;;15.90;11.67;;;4.70;99.90;;;;;;5104081;27;20581;-27
2021/01/28 06:45:22;;;;;;;19.47;13.70;;;4.70;99.90;;;;;;5104839;27;20476;-29
2021/01/28 06:48:19;;;;;;;15.00;11.83;;;4.70;99.90;;;;;;5086858;27;21026;-27
2021/01/28 06:51:17;;;;;;;21.53;12.70;;;4.70;99.90;;;;;;5105407;27;20458;-27
2021/01/28 06:53:50;;;;;;;17.67;12.37;;;4.70;99.90;;;;;;5084789;27;20636;-26
2021/01/28 06:56:43;;;;;;;15.40;13.03;;;4.70;99.90;;;;;;5067489;27;21038;-28
2021/01/28 06:59:50;;;;;;;19.63;14.03;;;4.80;99.90;;;;;;5069523;27;20653;-27
2021/01/28 07:02:34;;;;;;;18.03;13.50;;;4.70;99.90;;;;;;5079128;28;20506;-29
2021/01/28 07:05:16;;;;;;;20.60;15.13;;;4.70;99.90;;;;;;5079910;28;20890;-27
2021/01/28 07:07:49;;;;;;;22.10;15.00;;;4.70;99.90;;;;;;5078476;28;20634;-28
2021/01/28 07:10:36;;;;;;;18.17;13.60;;;4.70;99.90;;;;;;5093612;28;20878;-28
2021/01/28 07:13:21;;;;;;;24.50;14.70;;;4.60;99.90;;;;;;5075182;28;20925;-27
2021/01/28 07:16:20;;;;;;;21.43;15.03;;;4.60;99.90;;;;;;5086415;28;20557;-28
2021/01/28 07:18:49;;;;;;;25.30;14.93;;;4.60;99.90;;;;;;5096931;27;20872;-28
2021/01/28 07:21:30;;;;;;;23.53;16.00;;;4.70;99.90;;;;;;5101060;27;20717;-28
2021/01/28 07:24:02;;;;;;;20.43;15.13;;;4.60;99.90;;;;;;5078119;27;20445;-28
2021/01/28 07:26:45;;;;;;;25.40;14.83;;;4.60;99.90;;;;;;5099959;27;21078;-27
2021/01/28 07:29:40;;;;;;;22.27;14.17;;;4.60;99.90;;;;;;5075506;27;20943;-31
2021/01/28 07:32:08;;;;;;;28.47;20.13;;;4.70;99.90;;;;;;5085126;27;20494;-29
2021/01/28 07:35:29;;;;;;;23.70;19.30;;;4.80;99.90;;;;;;5108858;27;20465;-27
2021/01/28 07:39:00;;;;;;;23.50;16.90;;;4.80;99.90;;;;;;5089536;27;20480;-30
2021/01/28 07:41:56;;;;;;;18.07;14.00;;;4.80;99.90;;;;;;4995066;28;20439;-27
2021/01/28 07:44:50;;;;;;;21.57;15.37;;;4.90;99.90;;;;;;4985926;28;20556;-29
2021/01/28 07:47:59;;;;;;;22.40;16.60;;;4.90;99.90;;;;;;5000079;28;20450;-27
2021/01/28 07:50:45;;;;;;;22.60;16.13;;;5.00;99.90;;;;;;5002046;28;20472;-27
2021/01/28 07:53:48;;;;;;;18.77;13.97;;;5.10;99.90;;;;;;5002136;28;20466;-26
2021/01/28 07:56:48;;;;;;;18.10;13.03;;;5.10;99.90;;;;;;4970684;28;20608;-27
2021/01/28 07:59:25;;;;;;;12.70;10.07;;;5.10;99.90;;;;;;5020747;28;20999;-27
2021/01/28 08:01:54;;;;;;;20.37;12.80;;;5.10;99.90;;;;;;5042511;28;20463;-27
2021/01/28 08:04:32;;;;;;;22.07;15.10;;;5.10;99.90;;;;;;5054437;28;20916;-28
2021/01/28 08:07:04;;;;;;;13.73;10.57;;;5.20;99.90;;;;;;5060780;28;20450;-27
2021/01/28 08:09:46;;;;;;;15.40;11.47;;;5.20;99.90;;;;;;5061426;28;21181;-27
2021/01/28 08:12:13;;;;;;;21.10;15.57;;;5.30;99.90;;;;;;5063583;28;20517;-28
2021/01/28 08:14:44;;;;;;;19.43;13.70;;;5.30;99.90;;;;;;5060084;28;20468;-27
2021/01/28 08:17:19;;;;;;;23.70;15.03;;;5.30;99.90;;;;;;5062815;28;20588;-29
2021/01/28 08:19:46;;;;;;;17.63;14.60;;;5.40;99.90;;;;;;5057638;28;20449;-28
2021/01/28 08:22:18;;;;;;;19.20;13.47;;;5.40;99.90;;;;;;5043668;28;20444;-27
2021/01/28 08:24:54;;;;;;;17.00;13.30;;;5.50;99.90;;;;;;5041068;28;20440;-28
2021/01/28 08:27:30;;;;;;;14.70;12.70;;;5.50;99.90;;;;;;5041868;28;20513;-27
2021/01/28 08:30:06;;;;;;;18.23;13.10;;;5.50;99.90;;;;;;5061196;28;20459;-27
2021/01/28 08:32:37;;;;;;;17.97;12.50;;;5.50;99.90;;;;;;5063610;28;20432;-28
2021/01/28 08:35:09;;;;;;;17.63;13.47;;;5.40;99.90;;;;;;5045356;28;20944;-28
2021/01/28 08:37:36;;;;;;;17.83;12.93;;;5.40;99.90;;;;;;5042202;28;21291;-27
2021/01/28 08:40:13;;;;;;;16.43;11.93;;;5.40;99.90;;;;;;5051873;28;20521;-28
2021/01/28 08:42:40;;;;;;;20.20;12.63;;;5.40;99.90;;;;;;5045562;28;20525;-28
2021/01/28 08:45:17;;;;;;;16.10;12.47;;;5.40;99.90;;;;;;5053006;28;20915;-27
2021/01/28 08:47:56;;;;;;;20.30;11.90;;;5.40;99.90;;;;;;5045458;28;20544;-28
2021/01/28 08:50:26;;;;;;;21.20;13.17;;;5.40;99.90;;;;;;5044854;28;20644;-27
2021/01/28 08:53:03;;;;;;;17.60;11.93;;;5.50;99.90;;;;;;5059463;28;20544;-26
2021/01/28 08:55:37;;;;;;;17.63;12.70;;;5.50;99.90;;;;;;5063702;28;20477;-27
2021/01/28 08:58:16;;;;;;;16.33;13.13;;;5.50;99.90;;;;;;5067309;28;20933;-27
2021/01/28 09:00:47;;;;;;;18.37;12.67;;;5.50;99.90;;;;;;5063920;28;20687;-27
2021/01/28 09:03:20;;;;;;;18.90;13.60;;;5.50;99.90;;;;;;5065231;28;20456;-27
2021/01/28 09:05:47;;;;;;;15.63;12.50;;;5.60;99.90;;;;;;5063785;28;20775;-28
2021/01/28 09:08:33;;;;;;;18.67;14.20;;;5.60;99.90;;;;;;5077160;28;20497;-26
2021/01/28 09:11:17;;;;;;;16.17;11.53;;;5.70;99.90;;;;;;5062884;28;20527;-29
2021/01/28 09:14:14;;;;;;;16.87;12.17;;;5.80;99.90;;;;;;5052333;28;20516;-28
2021/01/28 09:16:53;;;;;;;21.80;12.63;;;5.90;99.90;;;;;;5057801;28;20895;-28
2021/01/28 09:19:22;;;;;;;19.97;13.93;;;5.90;99.90;;;;;;5073680;28;20454;-27
2021/01/28 09:21:57;;;;;;;20.90;16.10;;;5.90;99.90;;;;;;5064999;28;20451;-28
2021/01/28 09:24:35;;;;;;;17.83;13.50;;;5.90;99.90;;;;;;5067662;28;20790;-29
2021/01/28 09:27:17;;;;;;;20.93;14.90;;;6.00;99.90;;;;;;5083051;28;20443;-27
2021/01/28 09:29:46;;;;;;;17.53;12.80;;;6.00;99.90;;;;;;5084422;28;20504;-27
2021/01/28 09:32:31;;;;;;;15.87;12.53;;;5.90;99.90;;;;;;5072500;28;20466;-27
2021/01/28 09:35:15;;;;;;;13.93;10.30;;;6.00;99.90;;;;;;5063512;28;20468;-28
2021/01/28 09:37:45;;;;;;;13.40;10.60;;;6.00;99.90;;;;;;5079004;28;20900;-28
2021/01/28 09:40:26;;;;;;;10.90;9.77;;;6.00;99.90;;;;;;5082859;28;20469;-28
2021/01/28 09:43:18;;;;;;;12.43;10.87;;;6.10;99.90;;;;;;5071115;28;20494;-28
2021/01/28 09:46:01;;;;;;;17.07;13.20;;;6.20;99.90;;;;;;5081084;28;20446;-29
2021/01/28 09:48:30;;;;;;;17.50;13.93;;;6.40;99.90;;;;;;5078349;28;20439;-30
2021/01/28 09:50:57;;;;;;;18.57;14.80;;;6.60;99.90;;;;;;5059370;28;20490;-29
2021/01/28 09:53:25;;;;;;;17.33;15.53;;;6.70;99.90;;;;;;5060535;28;20436;-28
2021/01/28 09:55:52;;;;;;;19.10;16.50;;;6.80;99.90;;;;;;5056107;28;20499;-27
2021/01/28 09:58:20;;;;;;;18.23;15.57;;;6.90;99.90;;;;;;5059234;28;20917;-28
2021/01/28 10:00:47;;;;;;;20.83;17.30;;;7.00;99.90;;;;;;5077792;28;20546;-28
2021/01/28 10:03:15;;;;;;;17.60;14.00;;;6.90;99.90;;;;;;5076609;28;20523;-28
2021/01/28 10:05:43;;;;;;;21.17;13.50;;;6.90;99.90;;;;;;5060290;28;20938;-30
2021/01/28 10:08:14;;;;;;;15.97;11.33;;;6.80;99.90;;;;;;5065758;28;20758;-27
2021/01/28 10:10:44;;;;;;;11.93;10.73;;;6.70;99.90;;;;;;5061983;28;20447;-30
2021/01/28 10:13:16;;;;;;;11.73;10.53;;;6.70;99.90;;;;;;5060718;28;20455;-29
2021/01/28 10:15:44;;;;;;;12.00;10.13;;;6.60;99.90;;;;;;5060003;28;20463;-28
2021/01/28 10:18:14;;;;;;;16.47;12.37;;;6.60;99.90;;;;;;5062071;28;20439;-26
2021/01/28 10:20:43;;;;;;;12.80;10.93;;;6.60;99.90;;;;;;5061932;28;20475;-25
2021/01/28 10:23:11;;;;;;;19.83;13.27;;;6.60;99.90;;;;;;5057037;28;20448;-29
2021/01/28 10:25:39;;;;;;;13.40;12.00;;;6.60;99.90;;;;;;5077311;27;20506;-29
2021/01/28 10:28:07;;;;;;;20.17;14.97;;;6.70;99.90;;;;;;5099978;27;20450;-29
2021/01/28 10:30:34;;;;;;;13.00;11.60;;;6.70;99.90;;;;;;5082599;27;20486;-27
2021/01/28 10:33:04;;;;;;;15.90;11.50;;;6.80;99.90;;;;;;5081869;28;20432;-29
2021/01/28 10:35:36;;;;;;;14.90;13.00;;;6.80;99.90;;;;;;5058879;28;21050;-29
2021/01/28 10:38:04;;;;;;;14.10;11.80;;;6.80;99.90;;;;;;5061997;28;21133;-29
2021/01/28 10:40:33;;;;;;;27.80;15.27;;;6.90;99.90;;;;;;5084521;28;20473;-29
2021/01/28 10:43:04;;;;;;;25.80;15.47;;;6.80;99.90;;;;;;5084447;28;20442;-29
2021/01/28 10:45:34;;;;;;;11.83;10.20;;;6.80;99.90;;;;;;5083884;28;20454;-28
2021/01/28 10:48:04;;;;;;;12.57;8.97;;;6.80;99.90;;;;;;5083126;28;20584;-29
2021/01/28 10:50:33;;;;;;;14.80;11.30;;;6.80;99.90;;;;;;5073505;28;20536;-30
2021/01/28 10:53:01;;;;;;;17.90;12.90;;;6.70;99.90;;;;;;5073345;28;21303;-27
2021/01/28 10:55:30;;;;;;;13.80;11.53;;;6.80;99.90;;;;;;5080905;28;20493;-28
2021/01/28 10:57:59;;;;;;;19.37;15.67;;;6.80;99.90;;;;;;5080637;28;20439;-29
2021/01/28 11:00:28;;;;;;;15.47;11.67;;;6.90;99.90;;;;;;5073827;28;20628;-28
2021/01/28 11:02:57;;;;;;;13.03;11.40;;;6.90;99.90;;;;;;5080399;28;20630;-29
2021/01/28 11:05:27;;;;;;;21.17;15.20;;;6.80;99.90;;;;;;5083409;28;20471;-28
2021/01/28 11:07:55;;;;;;;19.60;14.23;;;6.80;99.90;;;;;;5083383;28;20458;-29
2021/01/28 11:10:26;;;;;;;17.50;13.20;;;6.80;99.90;;;;;;5063957;28;20860;-30
2021/01/28 11:12:56;;;;;;;15.57;11.23;;;6.70;99.90;;;;;;5064135;28;20438;-28
2021/01/28 11:15:27;;;;;;;14.40;11.87;;;6.70;99.90;;;;;;5074933;28;20466;-29
2021/01/28 11:17:54;;;;;;;15.30;12.40;;;6.60;99.90;;;;;;5087999;28;20445;-28
2021/01/28 11:20:22;;;;;;;15.73;13.10;;;6.70;99.90;;;;;;5103704;28;20431;-28
2021/01/28 11:23:01;;;;;;;16.63;14.50;;;6.80;99.90;;;;;;5080639;28;20451;-29
2021/01/28 11:25:31;;;;;;;17.80;14.43;;;7.00;99.90;;;;;;5069384;28;20437;-28
2021/01/28 11:27:58;;;;;;;19.87;15.13;;;7.20;99.90;;;;;;5054246;28;20452;-27
2021/01/28 11:30:29;;;;;;;16.97;14.57;;;7.40;99.90;;;;;;5057338;28;20580;-29
2021/01/28 11:32:56;;;;;;;11.43;8.43;;;7.50;99.90;;;;;;5059955;28;20436;-30
2021/01/28 11:35:26;;;;;;;12.40;10.50;;;7.60;99.90;;;;;;5058752;28;20975;-28
2021/01/28 11:37:54;;;;;;;15.90;14.00;;;7.50;99.90;;;;;;5057827;28;20516;-25
2021/01/28 11:40:27;;;;;;;11.97;10.60;;;7.50;99.90;;;;;;5053666;28;20926;-29
2021/01/28 11:42:54;;;;;;;11.70;10.27;;;7.50;99.90;;;;;;5046710;28;20501;-28
2021/01/28 11:45:28;;;;;;;12.03;10.57;;;7.50;99.90;;;;;;5026766;28;20864;-25
2021/01/28 11:47:55;;;;;;;12.40;10.20;;;7.40;99.90;;;;;;5051688;28;20522;-28
2021/01/28 11:50:22;;;;;;;10.93;7.60;;;7.20;99.90;;;;;;5050469;28;20444;-26
2021/01/28 11:52:54;;;;;;;8.37;6.83;;;7.10;99.90;;;;;;5047812;28;20447;-25
2021/01/28 11:55:23;;;;;;;9.53;6.67;;;6.90;99.90;;;;;;5053631;28;20926;-28
2021/01/28 11:57:50;;;;;;;7.60;6.90;;;6.90;99.90;;;;;;5032657;28;20435;-27
2021/01/28 12:00:22;;;;;;;6.90;5.97;;;6.90;99.90;;;;;;5031082;28;21053;-26
2021/01/28 12:02:51;;;;;;;6.33;5.83;;;7.10;99.90;;;;;;5048607;28;20848;-29
2021/01/28 12:05:19;;;;;;;6.57;5.90;;;7.30;99.90;;;;;;5048418;28;20435;-29
2021/01/28 12:07:47;;;;;;;6.33;5.80;;;7.70;99.90;;;;;;5052553;28;20478;-27
2021/01/28 12:10:16;;;;;;;6.43;5.80;;;7.80;99.90;;;;;;5034340;28;20513;-25
2021/01/28 12:12:43;;;;;;;7.30;6.43;;;8.00;99.90;;;;;;5052738;28;20685;-27
2021/01/28 12:15:16;;;;;;;6.90;5.97;;;8.10;99.90;;;;;;5050356;28;20741;-30
2021/01/28 12:17:43;;;;;;;8.53;5.50;;;8.10;99.90;;;;;;5055298;28;21023;-26
2021/01/28 12:20:13;;;;;;;6.07;5.47;;;8.10;99.90;;;;;;5057503;28;21257;-26
2021/01/28 12:22:40;;;;;;;6.13;5.53;;;8.20;99.90;;;;;;5054944;28;20669;-27
2021/01/28 12:25:08;;;;;;;5.40;4.90;;;8.20;99.90;;;;;;5052832;28;20560;-27
2021/01/28 12:27:35;;;;;;;5.97;5.43;;;8.10;99.90;;;;;;5056044;28;20886;-27
2021/01/28 12:30:06;;;;;;;5.40;4.87;;;8.10;99.90;;;;;;5056348;28;20962;-27
2021/01/28 12:32:32;;;;;;;5.50;4.97;;;8.20;99.90;;;;;;5056070;28;20432;-25
2021/01/28 12:34:59;;;;;;;5.63;5.07;;;8.10;99.90;;;;;;5053288;28;21279;-27
2021/01/28 12:37:27;;;;;;;5.53;4.77;;;8.20;99.90;;;;;;5056251;28;20934;-29
2021/01/28 12:39:54;;;;;;;4.50;4.10;;;8.20;99.90;;;;;;5055135;28;20861;-27
2021/01/28 12:42:22;;;;;;;5.17;4.77;;;8.20;99.90;;;;;;5035903;28;20704;-29
2021/01/28 12:44:49;;;;;;;5.93;5.43;;;8.30;99.90;;;;;;5036472;28;20470;-26
2021/01/28 12:47:17;;;;;;;3.50;3.20;;;8.30;99.90;;;;;;5055083;28;20621;-26
2021/01/28 12:49:44;;;;;;;5.40;4.03;;;8.30;99.90;;;;;;5052865;28;20581;-27
2021/01/28 12:52:11;;;;;;;3.97;3.67;;;8.50;99.90;;;;;;5076204;28;20480;-27
2021/01/28 12:54:45;;;;;;;4.80;3.60;;;8.60;99.90;;;;;;5082293;28;20435;-30
2021/01/28 12:57:12;;;;;;;3.63;3.33;;;8.80;99.90;;;;;;5056590;28;20676;-27
2021/01/28 12:59:39;;;;;;;5.53;4.57;;;8.70;99.90;;;;;;5053323;28;20919;-28
2021/01/28 13:02:10;;;;;;;3.57;3.27;;;8.70;99.90;;;;;;5070871;28;20865;-29
2021/01/28 13:04:38;;;;;;;5.47;4.27;;;8.80;99.90;;;;;;5075365;28;20455;-26
2021/01/28 13:07:05;;;;;;;3.67;3.37;;;8.80;99.90;;;;;;5073762;28;21114;-28
2021/01/28 13:09:31;;;;;;;3.53;3.23;;;8.80;99.90;;;;;;5075829;28;20504;-26
2021/01/28 13:11:59;;;;;;;2.77;2.57;;;8.70;99.90;;;;;;5073974;28;20572;-28
2021/01/28 13:14:26;;;;;;;3.37;3.07;;;8.70;99.90;;;;;;5076198;28;20837;-28
2021/01/28 13:16:53;;;;;;;3.93;3.57;;;8.60;99.90;;;;;;5072345;28;20691;-28
2021/01/28 13:19:20;;;;;;;3.30;3.00;;;8.60;99.90;;;;;;5080280;28;20765;-29
2021/01/28 13:21:46;;;;;;;3.50;3.23;;;8.60;99.90;;;;;;5078456;28;20473;-27
2021/01/28 13:24:15;;;;;;;2.60;2.40;;;8.50;99.90;;;;;;5075754;28;20701;-30
2021/01/28 13:26:41;;;;;;;2.60;2.33;;;8.50;99.90;;;;;;5075063;28;20832;-27
2021/01/28 13:29:09;;;;;;;3.20;3.00;;;8.50;99.90;;;;;;5072147;28;20528;-28